CSN321 ZJSY-ZGKL
Flight info
| Callsign | CSN321 |
|---|---|
| Flight time | 1h 12m |
| Altitude | 35100 |
| Route | PORAP1N PORAP W222 NUMKU W223 AGTEL W71 LH/K0835S1100 R339 BHY W159 LBN LBN9W |
| Aircraft | A320/M-SDFGIRW/LB1 |
Departure
| Time | 2026-05-04 01:13 |
|---|---|
| Airport | Sanya Phoenix International Airport (ZJSY) |
Arrival
| Time | 2026-05-04 02:26 |
|---|---|
| Airport | Guilin Liangjiang International Airport (ZGKL) |
| Time | Latitude | Longitude | Altitude | Speed | Heading |
|---|---|---|---|---|---|
| 2026-05-04 00:54 | 18.30741 | 109.40340 | 71 ft | 0 kts | 352° |
| 2026-05-04 01:04 | 18.30731 | 109.40342 | 69 ft | 4 kts | 353° |
| 2026-05-04 01:04 | 18.30695 | 109.40348 | 70 ft | 4 kts | 347° |
| 2026-05-04 01:04 | 18.30670 | 109.40355 | 73 ft | 3 kts | 343° |
| 2026-05-04 01:05 | 18.30663 | 109.40357 | 73 ft | 0 kts | 343° |
| 2026-05-04 01:06 | 18.30665 | 109.40356 | 73 ft | 2 kts | 339° |
| 2026-05-04 01:07 | 18.30672 | 109.40301 | 75 ft | 11 kts | 258° |
| 2026-05-04 01:07 | 18.30642 | 109.40234 | 71 ft | 10 kts | 210° |
| 2026-05-04 01:07 | 18.30580 | 109.40235 | 73 ft | 8 kts | 173° |
| 2026-05-04 01:07 | 18.30528 | 109.40242 | 71 ft | 7 kts | 173° |
| 2026-05-04 01:08 | 18.30484 | 109.40248 | 71 ft | 6 kts | 173° |
| 2026-05-04 01:08 | 18.30449 | 109.40253 | 74 ft | 5 kts | 173° |
| 2026-05-04 01:08 | 18.30430 | 109.40252 | 70 ft | 4 kts | 192° |
| 2026-05-04 01:08 | 18.30402 | 109.40208 | 72 ft | 8 kts | 260° |
| 2026-05-04 01:09 | 18.30397 | 109.40150 | 72 ft | 8 kts | 263° |
| 2026-05-04 01:09 | 18.30388 | 109.40079 | 76 ft | 7 kts | 262° |
| 2026-05-04 01:09 | 18.30382 | 109.40031 | 76 ft | 6 kts | 262° |
| 2026-05-04 01:09 | 18.30376 | 109.39986 | 68 ft | 6 kts | 262° |
| 2026-05-04 01:10 | 18.30370 | 109.39944 | 70 ft | 6 kts | 262° |
| 2026-05-04 01:10 | 18.30365 | 109.39904 | 75 ft | 12 kts | 262° |
| 2026-05-04 01:10 | 18.30352 | 109.39801 | 74 ft | 14 kts | 263° |
| 2026-05-04 01:10 | 18.30340 | 109.39701 | 73 ft | 13 kts | 262° |
| 2026-05-04 01:11 | 18.30315 | 109.39624 | 68 ft | 10 kts | 217° |
| 2026-05-04 01:11 | 18.30253 | 109.39622 | 68 ft | 8 kts | 171° |
| 2026-05-04 01:11 | 18.30204 | 109.39630 | 71 ft | 6 kts | 172° |
| 2026-05-04 01:11 | 18.30169 | 109.39635 | 53 ft | 4 kts | 172° |
| 2026-05-04 01:12 | 18.30138 | 109.39639 | 68 ft | 4 kts | 172° |
| 2026-05-04 01:12 | 18.30095 | 109.39654 | 68 ft | 8 kts | 136° |
| 2026-05-04 01:12 | 18.30092 | 109.39703 | 74 ft | 6 kts | 81° |
| 2026-05-04 01:12 | 18.30100 | 109.39762 | 71 ft | 24 kts | 82° |
| 2026-05-04 01:13 | 18.30160 | 109.40215 | 73 ft | 97 kts | 82° |
| 2026-05-04 01:13 | 18.30278 | 109.41122 | 84 ft | 150 kts | 82° |
| 2026-05-04 01:13 | 18.30423 | 109.42323 | 420 ft | 168 kts | 84° |
| 2026-05-04 01:13 | 18.30557 | 109.43539 | 1146 ft | 167 kts | 82° |
| 2026-05-04 01:14 | 18.30726 | 109.44771 | 1699 ft | 178 kts | 81° |
| 2026-05-04 01:14 | 18.30923 | 109.46141 | 1993 ft | 202 kts | 81° |
| 2026-05-04 01:14 | 18.31144 | 109.47684 | 2417 ft | 224 kts | 81° |
| 2026-05-04 01:14 | 18.31384 | 109.49346 | 3102 ft | 233 kts | 79° |
| 2026-05-04 01:15 | 18.32073 | 109.50889 | 3854 ft | 240 kts | 48° |
| 2026-05-04 01:15 | 18.33403 | 109.51990 | 4687 ft | 246 kts | 33° |
| 2026-05-04 01:15 | 18.34911 | 109.52872 | 5459 ft | 251 kts | 28° |
| 2026-05-04 01:15 | 18.36461 | 109.53704 | 6234 ft | 256 kts | 28° |
| 2026-05-04 01:16 | 18.38053 | 109.54574 | 6993 ft | 260 kts | 29° |
| 2026-05-04 01:16 | 18.39655 | 109.55495 | 7745 ft | 264 kts | 30° |
| 2026-05-04 01:16 | 18.41263 | 109.56463 | 8494 ft | 268 kts | 31° |
| 2026-05-04 01:16 | 18.42888 | 109.57474 | 9240 ft | 273 kts | 30° |
| 2026-05-04 01:17 | 18.44527 | 109.58512 | 9993 ft | 277 kts | 30° |
| 2026-05-04 01:17 | 18.46188 | 109.59572 | 10673 ft | 281 kts | 30° |
| 2026-05-04 01:17 | 18.47873 | 109.60653 | 11328 ft | 286 kts | 30° |
| 2026-05-04 01:17 | 18.49623 | 109.61687 | 11953 ft | 293 kts | 24° |
| 2026-05-04 01:18 | 18.51549 | 109.62618 | 12172 ft | 316 kts | 23° |
| 2026-05-04 01:18 | 18.53625 | 109.63607 | 12350 ft | 339 kts | 23° |
| 2026-05-04 01:18 | 18.55844 | 109.64662 | 12585 ft | 358 kts | 23° |
| 2026-05-04 01:18 | 18.58139 | 109.65757 | 13119 ft | 366 kts | 23° |
| 2026-05-04 01:19 | 18.60478 | 109.66876 | 13738 ft | 371 kts | 23° |
| 2026-05-04 01:19 | 18.62845 | 109.68010 | 14288 ft | 376 kts | 23° |
| 2026-05-04 01:19 | 18.65209 | 109.69143 | 14826 ft | 380 kts | 23° |
| 2026-05-04 01:19 | 18.67630 | 109.70305 | 15397 ft | 384 kts | 23° |
| 2026-05-04 01:20 | 18.70071 | 109.71477 | 15957 ft | 388 kts | 23° |
| 2026-05-04 01:20 | 18.72539 | 109.72660 | 16547 ft | 391 kts | 23° |
| 2026-05-04 01:20 | 18.75029 | 109.73853 | 17100 ft | 396 kts | 22° |
| 2026-05-04 01:20 | 18.77555 | 109.75063 | 17647 ft | 400 kts | 22° |
| 2026-05-04 01:21 | 18.80100 | 109.76284 | 18204 ft | 404 kts | 22° |
| 2026-05-04 01:21 | 18.82672 | 109.77516 | 18663 ft | 408 kts | 22° |
| 2026-05-04 01:21 | 18.85263 | 109.78759 | 19147 ft | 410 kts | 22° |
| 2026-05-04 01:21 | 18.87870 | 109.80012 | 19613 ft | 413 kts | 22° |
| 2026-05-04 01:22 | 18.90504 | 109.81278 | 20045 ft | 418 kts | 22° |
| 2026-05-04 01:22 | 18.93160 | 109.82559 | 20505 ft | 422 kts | 22° |
| 2026-05-04 01:22 | 18.95841 | 109.83851 | 20942 ft | 425 kts | 22° |
| 2026-05-04 01:22 | 18.98545 | 109.85157 | 21394 ft | 429 kts | 22° |
| 2026-05-04 01:23 | 19.01267 | 109.86470 | 21825 ft | 432 kts | 22° |
| 2026-05-04 01:23 | 19.04010 | 109.87790 | 22274 ft | 434 kts | 22° |
| 2026-05-04 01:23 | 19.06768 | 109.89116 | 22763 ft | 436 kts | 22° |
| 2026-05-04 01:23 | 19.09535 | 109.90446 | 23217 ft | 438 kts | 21° |
| 2026-05-04 01:24 | 19.12317 | 109.91784 | 23629 ft | 441 kts | 21° |
| 2026-05-04 01:24 | 19.15111 | 109.93131 | 23977 ft | 443 kts | 22° |
| 2026-05-04 01:24 | 19.17924 | 109.94490 | 24340 ft | 445 kts | 22° |
| 2026-05-04 01:24 | 19.20740 | 109.95851 | 24707 ft | 446 kts | 22° |
| 2026-05-04 01:25 | 19.23571 | 109.97217 | 25070 ft | 448 kts | 22° |
| 2026-05-04 01:25 | 19.26413 | 109.98583 | 25428 ft | 449 kts | 21° |
| 2026-05-04 01:25 | 19.29277 | 109.99929 | 25780 ft | 451 kts | 21° |
| 2026-05-04 01:25 | 19.32160 | 110.01261 | 26142 ft | 453 kts | 21° |
| 2026-05-04 01:26 | 19.35046 | 110.02608 | 26510 ft | 454 kts | 21° |
| 2026-05-04 01:26 | 19.37898 | 110.03966 | 26854 ft | 456 kts | 21° |
| 2026-05-04 01:26 | 19.40825 | 110.05379 | 27194 ft | 458 kts | 21° |
| 2026-05-04 01:26 | 19.43687 | 110.06771 | 27518 ft | 459 kts | 22° |
| 2026-05-04 01:27 | 19.46600 | 110.08190 | 27834 ft | 461 kts | 22° |
| 2026-05-04 01:27 | 19.49522 | 110.09612 | 28144 ft | 463 kts | 21° |
| 2026-05-04 01:27 | 19.52460 | 110.11038 | 28472 ft | 465 kts | 21° |
| 2026-05-04 01:27 | 19.55411 | 110.12464 | 28787 ft | 467 kts | 21° |
| 2026-05-04 01:28 | 19.58375 | 110.13892 | 29095 ft | 469 kts | 21° |
| 2026-05-04 01:28 | 19.61352 | 110.15328 | 29371 ft | 471 kts | 21° |
| 2026-05-04 01:28 | 19.64344 | 110.16772 | 29659 ft | 474 kts | 21° |
| 2026-05-04 01:28 | 19.67353 | 110.18226 | 29921 ft | 476 kts | 21° |
| 2026-05-04 01:29 | 19.70366 | 110.19686 | 30170 ft | 478 kts | 21° |
| 2026-05-04 01:29 | 19.73406 | 110.21161 | 30405 ft | 480 kts | 21° |
| 2026-05-04 01:29 | 19.76448 | 110.22638 | 30637 ft | 481 kts | 21° |
| 2026-05-04 01:29 | 19.79500 | 110.24122 | 30867 ft | 483 kts | 21° |
| 2026-05-04 01:30 | 19.82559 | 110.25608 | 31095 ft | 484 kts | 21° |
| 2026-05-04 01:30 | 19.85631 | 110.27099 | 31318 ft | 486 kts | 21° |
| 2026-05-04 01:30 | 19.88707 | 110.28591 | 31586 ft | 486 kts | 21° |
| 2026-05-04 01:30 | 19.91779 | 110.30079 | 31928 ft | 485 kts | 21° |
| 2026-05-04 01:31 | 19.94845 | 110.31566 | 32268 ft | 484 kts | 21° |
| 2026-05-04 01:31 | 19.97909 | 110.33055 | 32574 ft | 484 kts | 21° |
| 2026-05-04 01:31 | 20.00967 | 110.34548 | 32896 ft | 483 kts | 20° |
| 2026-05-04 01:31 | 20.04048 | 110.35958 | 33216 ft | 479 kts | 14° |
| 2026-05-04 01:32 | 20.07241 | 110.36858 | 33538 ft | 472 kts | 5° |
| 2026-05-04 01:32 | 20.10481 | 110.37189 | 33878 ft | 465 kts | 355° |
| 2026-05-04 01:32 | 20.13679 | 110.36977 | 34194 ft | 457 kts | 346° |
| 2026-05-04 01:32 | 20.16793 | 110.36351 | 34486 ft | 454 kts | 343° |
| 2026-05-04 01:33 | 20.19895 | 110.35692 | 34765 ft | 454 kts | 343° |
| 2026-05-04 01:33 | 20.22996 | 110.35039 | 35026 ft | 454 kts | 343° |
| 2026-05-04 01:33 | 20.26094 | 110.34388 | 35133 ft | 452 kts | 343° |
| 2026-05-04 01:34 | 20.32220 | 110.33103 | 35151 ft | 447 kts | 343° |
| 2026-05-04 01:34 | 20.38312 | 110.31816 | 35151 ft | 446 kts | 343° |
| 2026-05-04 01:35 | 20.44402 | 110.30524 | 35153 ft | 446 kts | 343° |
| 2026-05-04 01:35 | 20.50544 | 110.29469 | 35154 ft | 452 kts | 353° |
| 2026-05-04 01:36 | 20.56840 | 110.29777 | 35168 ft | 457 kts | 358° |
| 2026-05-04 01:36 | 20.63192 | 110.30203 | 35160 ft | 458 kts | 357° |
| 2026-05-04 01:37 | 20.69551 | 110.30616 | 35154 ft | 458 kts | 357° |
| 2026-05-04 01:37 | 20.75923 | 110.31033 | 35151 ft | 459 kts | 357° |
| 2026-05-04 01:38 | 20.82295 | 110.31449 | 35152 ft | 459 kts | 357° |
| 2026-05-04 01:38 | 20.88669 | 110.31860 | 35152 ft | 459 kts | 357° |
| 2026-05-04 01:39 | 20.95047 | 110.32281 | 35154 ft | 459 kts | 358° |
| 2026-05-04 01:39 | 21.01426 | 110.32704 | 35155 ft | 459 kts | 357° |
| 2026-05-04 01:40 | 21.07742 | 110.32580 | 35159 ft | 446 kts | 341° |
| 2026-05-04 01:40 | 21.10663 | 110.31604 | 35158 ft | 435 kts | 329° |
| 2026-05-04 01:40 | 21.13252 | 110.30080 | 35155 ft | 426 kts | 319° |
| 2026-05-04 01:40 | 21.15496 | 110.28066 | 35153 ft | 418 kts | 308° |
| 2026-05-04 01:41 | 21.17304 | 110.25667 | 35151 ft | 411 kts | 298° |
| 2026-05-04 01:41 | 21.20053 | 110.20333 | 35149 ft | 409 kts | 294° |
| 2026-05-04 01:42 | 21.22758 | 110.14964 | 35172 ft | 409 kts | 294° |
| 2026-05-04 01:42 | 21.25465 | 110.09597 | 35177 ft | 410 kts | 294° |
| 2026-05-04 01:43 | 21.28175 | 110.04214 | 35176 ft | 410 kts | 294° |
| 2026-05-04 01:43 | 21.30873 | 109.98835 | 35171 ft | 409 kts | 294° |
| 2026-05-04 01:44 | 21.33555 | 109.93494 | 35167 ft | 409 kts | 294° |
| 2026-05-04 01:44 | 21.36259 | 109.88113 | 35170 ft | 410 kts | 294° |
| 2026-05-04 01:45 | 21.38952 | 109.82723 | 35172 ft | 410 kts | 293° |
| 2026-05-04 01:45 | 21.42991 | 109.74633 | 35178 ft | 410 kts | 294° |
| 2026-05-04 01:46 | 21.45688 | 109.69239 | 35180 ft | 410 kts | 294° |
| 2026-05-04 01:46 | 21.48388 | 109.63844 | 35180 ft | 410 kts | 294° |
| 2026-05-04 01:47 | 21.51078 | 109.58437 | 35180 ft | 410 kts | 293° |
| 2026-05-04 01:47 | 21.53760 | 109.53028 | 35184 ft | 410 kts | 294° |
| 2026-05-04 01:48 | 21.56600 | 109.47708 | 35184 ft | 415 kts | 303° |
| 2026-05-04 01:48 | 21.58606 | 109.45448 | 35176 ft | 424 kts | 315° |
| 2026-05-04 01:48 | 21.61096 | 109.43687 | 35184 ft | 435 kts | 328° |
| 2026-05-04 01:49 | 21.63936 | 109.42577 | 35167 ft | 447 kts | 341° |
| 2026-05-04 01:49 | 21.67042 | 109.42076 | 35162 ft | 454 kts | 346° |
| 2026-05-04 01:49 | 21.73329 | 109.41275 | 35157 ft | 456 kts | 346° |
| 2026-05-04 01:50 | 21.79634 | 109.40462 | 35162 ft | 457 kts | 346° |
| 2026-05-04 01:50 | 21.85951 | 109.39646 | 35166 ft | 458 kts | 346° |
| 2026-05-04 01:51 | 21.92281 | 109.38830 | 35170 ft | 458 kts | 346° |
| 2026-05-04 01:51 | 21.98613 | 109.38008 | 35201 ft | 458 kts | 346° |
| 2026-05-04 01:52 | 22.04937 | 109.37186 | 35208 ft | 457 kts | 346° |
| 2026-05-04 01:52 | 22.11254 | 109.36359 | 35208 ft | 457 kts | 346° |
| 2026-05-04 01:53 | 22.17566 | 109.35535 | 35210 ft | 457 kts | 346° |
| 2026-05-04 01:53 | 22.23875 | 109.34718 | 35227 ft | 457 kts | 346° |
| 2026-05-04 01:54 | 22.30182 | 109.33897 | 35220 ft | 457 kts | 346° |
| 2026-05-04 01:54 | 22.36497 | 109.33066 | 35216 ft | 457 kts | 346° |
| 2026-05-04 01:55 | 22.42769 | 109.32238 | 35213 ft | 457 kts | 346° |
| 2026-05-04 01:55 | 22.49082 | 109.31409 | 35210 ft | 457 kts | 346° |
| 2026-05-04 01:56 | 22.55401 | 109.30579 | 35215 ft | 457 kts | 346° |
| 2026-05-04 01:56 | 22.61718 | 109.29749 | 35217 ft | 457 kts | 346° |
| 2026-05-04 01:57 | 22.68035 | 109.28916 | 35218 ft | 457 kts | 346° |
| 2026-05-04 01:57 | 22.74349 | 109.28080 | 35211 ft | 457 kts | 346° |
| 2026-05-04 01:58 | 22.79601 | 109.27389 | 35210 ft | 457 kts | 346° |
| 2026-05-04 01:58 | 22.85917 | 109.26561 | 35224 ft | 457 kts | 346° |
| 2026-05-04 01:59 | 22.92242 | 109.25741 | 35240 ft | 458 kts | 345° |
| 2026-05-04 01:59 | 22.98563 | 109.24917 | 35239 ft | 457 kts | 345° |
| 2026-05-04 02:00 | 23.05904 | 109.23946 | 35235 ft | 457 kts | 345° |
| 2026-05-04 02:00 | 23.11195 | 109.23253 | 35229 ft | 457 kts | 345° |
| 2026-05-04 02:01 | 23.17502 | 109.22424 | 35252 ft | 457 kts | 345° |
| 2026-05-04 02:01 | 23.23805 | 109.21597 | 35244 ft | 456 kts | 345° |
| 2026-05-04 02:02 | 23.30095 | 109.20774 | 35234 ft | 455 kts | 345° |
| 2026-05-04 02:02 | 23.36350 | 109.19959 | 35230 ft | 456 kts | 345° |
| 2026-05-04 02:03 | 23.42643 | 109.19133 | 35229 ft | 455 kts | 345° |
| 2026-05-04 02:03 | 23.48929 | 109.18302 | 35253 ft | 455 kts | 344° |
| 2026-05-04 02:04 | 23.55205 | 109.17467 | 35250 ft | 454 kts | 344° |
| 2026-05-04 02:04 | 23.61461 | 109.16638 | 35244 ft | 452 kts | 344° |
| 2026-05-04 02:05 | 23.67711 | 109.15807 | 35061 ft | 452 kts | 344° |
| 2026-05-04 02:05 | 23.70837 | 109.15411 | 34829 ft | 455 kts | 347° |
| 2026-05-04 02:05 | 23.74044 | 109.15447 | 34601 ft | 468 kts | 358° |
| 2026-05-04 02:06 | 23.77275 | 109.16141 | 34300 ft | 479 kts | 9° |
| 2026-05-04 02:06 | 23.80398 | 109.17505 | 33655 ft | 491 kts | 21° |
| 2026-05-04 02:06 | 23.83332 | 109.19478 | 33007 ft | 495 kts | 26° |
| 2026-05-04 02:06 | 23.86228 | 109.21517 | 32361 ft | 495 kts | 26° |
| 2026-05-04 02:07 | 23.89120 | 109.23544 | 31721 ft | 494 kts | 26° |
| 2026-05-04 02:07 | 23.92017 | 109.25562 | 31082 ft | 493 kts | 25° |
| 2026-05-04 02:07 | 23.94879 | 109.27547 | 30447 ft | 493 kts | 25° |
| 2026-05-04 02:07 | 23.97814 | 109.29580 | 29745 ft | 492 kts | 25° |
| 2026-05-04 02:08 | 24.00691 | 109.31574 | 29141 ft | 488 kts | 25° |
| 2026-05-04 02:08 | 24.03544 | 109.33553 | 28527 ft | 484 kts | 25° |
| 2026-05-04 02:08 | 24.06380 | 109.35524 | 27927 ft | 481 kts | 25° |
| 2026-05-04 02:08 | 24.09142 | 109.37451 | 27400 ft | 476 kts | 25° |
| 2026-05-04 02:09 | 24.11924 | 109.39396 | 26897 ft | 471 kts | 25° |
| 2026-05-04 02:09 | 24.14682 | 109.41323 | 26309 ft | 468 kts | 25° |
| 2026-05-04 02:09 | 24.17402 | 109.43222 | 25870 ft | 461 kts | 25° |
| 2026-05-04 02:09 | 24.20102 | 109.45106 | 25328 ft | 459 kts | 25° |
| 2026-05-04 02:10 | 24.22784 | 109.46979 | 24795 ft | 453 kts | 25° |
| 2026-05-04 02:10 | 24.25419 | 109.48823 | 23957 ft | 447 kts | 25° |
| 2026-05-04 02:10 | 24.28022 | 109.50643 | 23176 ft | 438 kts | 25° |
| 2026-05-04 02:10 | 24.30569 | 109.52421 | 22600 ft | 432 kts | 25° |
| 2026-05-04 02:11 | 24.33106 | 109.54189 | 22004 ft | 432 kts | 26° |
| 2026-05-04 02:11 | 24.35634 | 109.55957 | 21462 ft | 430 kts | 26° |
| 2026-05-04 02:11 | 24.38136 | 109.57711 | 21093 ft | 424 kts | 26° |
| 2026-05-04 02:11 | 24.40596 | 109.59437 | 20363 ft | 417 kts | 26° |
| 2026-05-04 02:12 | 24.43029 | 109.61141 | 19677 ft | 414 kts | 26° |
| 2026-05-04 02:12 | 24.45447 | 109.62833 | 19321 ft | 409 kts | 27° |
| 2026-05-04 02:12 | 24.47834 | 109.64508 | 18876 ft | 407 kts | 27° |
| 2026-05-04 02:12 | 24.50198 | 109.66169 | 18226 ft | 400 kts | 27° |
| 2026-05-04 02:13 | 24.52528 | 109.67808 | 17436 ft | 394 kts | 27° |
| 2026-05-04 02:13 | 24.54798 | 109.69406 | 16889 ft | 381 kts | 27° |
| 2026-05-04 02:13 | 24.56993 | 109.70953 | 16401 ft | 369 kts | 27° |
| 2026-05-04 02:13 | 24.59118 | 109.72451 | 15918 ft | 358 kts | 27° |
| 2026-05-04 02:14 | 24.61199 | 109.73914 | 15470 ft | 355 kts | 27° |
| 2026-05-04 02:14 | 24.63290 | 109.75377 | 14977 ft | 358 kts | 27° |
| 2026-05-04 02:14 | 24.65369 | 109.76833 | 14504 ft | 360 kts | 28° |
| 2026-05-04 02:14 | 24.67486 | 109.78317 | 14032 ft | 361 kts | 28° |
| 2026-05-04 02:15 | 24.69654 | 109.79693 | 13535 ft | 358 kts | 19° |
| 2026-05-04 02:15 | 24.71937 | 109.80781 | 13026 ft | 358 kts | 19° |
| 2026-05-04 02:15 | 24.74055 | 109.82221 | 12622 ft | 362 kts | 38° |
| 2026-05-04 02:15 | 24.75584 | 109.84438 | 12174 ft | 365 kts | 63° |
| 2026-05-04 02:16 | 24.76268 | 109.87100 | 11778 ft | 362 kts | 85° |
| 2026-05-04 02:16 | 24.76206 | 109.89833 | 11016 ft | 357 kts | 95° |
| 2026-05-04 02:16 | 24.75999 | 109.92540 | 10327 ft | 350 kts | 96° |
| 2026-05-04 02:16 | 24.75886 | 109.95152 | 10020 ft | 332 kts | 84° |
| 2026-05-04 02:17 | 24.76577 | 109.97500 | 9864 ft | 319 kts | 56° |
| 2026-05-04 02:17 | 24.78061 | 109.99206 | 9367 ft | 304 kts | 28° |
| 2026-05-04 02:17 | 24.79998 | 109.99962 | 8733 ft | 292 kts | 4° |
| 2026-05-04 02:17 | 24.82018 | 110.00154 | 7977 ft | 291 kts | 2° |
| 2026-05-04 02:18 | 24.84030 | 110.00326 | 7388 ft | 286 kts | 3° |
| 2026-05-04 02:18 | 24.85954 | 110.00502 | 7182 ft | 272 kts | 4° |
| 2026-05-04 02:18 | 24.87819 | 110.00680 | 6903 ft | 268 kts | 6° |
| 2026-05-04 02:18 | 24.89682 | 110.00858 | 6539 ft | 268 kts | 6° |
| 2026-05-04 02:19 | 24.91539 | 110.01036 | 6168 ft | 267 kts | 6° |
| 2026-05-04 02:19 | 24.93377 | 110.01211 | 5820 ft | 263 kts | 6° |
| 2026-05-04 02:19 | 24.95167 | 110.01381 | 5476 ft | 250 kts | 7° |
| 2026-05-04 02:19 | 24.96842 | 110.01540 | 5170 ft | 234 kts | 7° |
| 2026-05-04 02:20 | 24.98413 | 110.01690 | 4876 ft | 220 kts | 8° |
| 2026-05-04 02:20 | 24.99903 | 110.01832 | 4582 ft | 209 kts | 8° |
| 2026-05-04 02:20 | 25.01316 | 110.01967 | 4314 ft | 200 kts | 8° |
| 2026-05-04 02:20 | 25.02674 | 110.02097 | 4079 ft | 191 kts | 8° |
| 2026-05-04 02:21 | 25.03960 | 110.02220 | 3820 ft | 181 kts | 8° |
| 2026-05-04 02:21 | 25.05191 | 110.02338 | 3573 ft | 173 kts | 7° |
| 2026-05-04 02:21 | 25.06343 | 110.02448 | 3374 ft | 164 kts | 7° |
| 2026-05-04 02:21 | 25.07426 | 110.02552 | 3169 ft | 149 kts | 7° |
| 2026-05-04 02:22 | 25.08420 | 110.02647 | 2959 ft | 140 kts | 7° |
| 2026-05-04 02:22 | 25.09380 | 110.02739 | 2793 ft | 137 kts | 7° |
| 2026-05-04 02:22 | 25.10322 | 110.02830 | 2602 ft | 135 kts | 7° |
| 2026-05-04 02:22 | 25.11265 | 110.02920 | 2435 ft | 136 kts | 7° |
| 2026-05-04 02:23 | 25.12214 | 110.03011 | 2261 ft | 137 kts | 6° |
| 2026-05-04 02:23 | 25.13163 | 110.03102 | 2077 ft | 137 kts | 6° |
| 2026-05-04 02:23 | 25.14122 | 110.03194 | 1895 ft | 139 kts | 6° |
| 2026-05-04 02:23 | 25.15088 | 110.03287 | 1712 ft | 139 kts | 6° |
| 2026-05-04 02:24 | 25.16042 | 110.03378 | 1528 ft | 137 kts | 5° |
| 2026-05-04 02:24 | 25.16986 | 110.03468 | 1341 ft | 136 kts | 4° |
| 2026-05-04 02:24 | 25.17931 | 110.03559 | 1149 ft | 137 kts | 4° |
| 2026-05-04 02:24 | 25.18887 | 110.03651 | 954 ft | 138 kts | 6° |
| 2026-05-04 02:25 | 25.19851 | 110.03745 | 760 ft | 140 kts | 6° |
| 2026-05-04 02:25 | 25.20823 | 110.03843 | 621 ft | 140 kts | 5° |
| 2026-05-04 02:25 | 25.21725 | 110.03928 | 580 ft | 113 kts | 5° |
| 2026-05-04 02:25 | 25.22336 | 110.03978 | 579 ft | 63 kts | 4° |
| 2026-05-04 02:26 | 25.22604 | 110.04006 | 581 ft | 17 kts | 6° |
| 2026-05-04 02:26 | 25.22727 | 110.04019 | 581 ft | 18 kts | 5° |
| 2026-05-04 02:26 | 25.22859 | 110.04032 | 581 ft | 20 kts | 5° |
| 2026-05-04 02:26 | 25.22997 | 110.04046 | 581 ft | 17 kts | 5° |
| 2026-05-04 02:27 | 25.23057 | 110.04124 | 580 ft | 15 kts | 92° |
| 2026-05-04 02:27 | 25.23024 | 110.04227 | 580 ft | 10 kts | 147° |
| 2026-05-04 02:27 | 25.22976 | 110.04232 | 581 ft | 6 kts | 188° |
| 2026-05-04 02:27 | 25.22937 | 110.04226 | 579 ft | 5 kts | 187° |
| 2026-05-04 02:28 | 25.22906 | 110.04223 | 579 ft | 4 kts | 184° |
| 2026-05-04 02:28 | 25.22880 | 110.04221 | 579 ft | 3 kts | 184° |
| 2026-05-04 02:28 | 25.22828 | 110.04217 | 581 ft | 12 kts | 184° |
| 2026-05-04 02:28 | 25.22752 | 110.04210 | 582 ft | 10 kts | 185° |
| 2026-05-04 02:29 | 25.22684 | 110.04204 | 579 ft | 9 kts | 185° |
| 2026-05-04 02:29 | 25.22625 | 110.04196 | 579 ft | 8 kts | 187° |
| 2026-05-04 02:29 | 25.22574 | 110.04191 | 579 ft | 7 kts | 185° |
| 2026-05-04 02:29 | 25.22508 | 110.04186 | 579 ft | 12 kts | 185° |
| 2026-05-04 02:30 | 25.22417 | 110.04177 | 582 ft | 13 kts | 185° |
| 2026-05-04 02:30 | 25.22333 | 110.04169 | 581 ft | 12 kts | 185° |
| 2026-05-04 02:30 | 25.22257 | 110.04162 | 580 ft | 10 kts | 185° |
| 2026-05-04 02:30 | 25.22190 | 110.04158 | 578 ft | 9 kts | 168° |
| 2026-05-04 02:31 | 25.22155 | 110.04201 | 581 ft | 7 kts | 104° |
| 2026-05-04 02:31 | 25.22150 | 110.04249 | 580 ft | 6 kts | 95° |
| 2026-05-04 02:31 | 25.22147 | 110.04289 | 579 ft | 5 kts | 95° |
| 2026-05-04 02:31 | 25.22144 | 110.04325 | 579 ft | 5 kts | 95° |
| 2026-05-04 02:32 | 25.22131 | 110.04379 | 579 ft | 8 kts | 117° |
| 2026-05-04 02:32 | 25.22103 | 110.04400 | 584 ft | 4 kts | 166° |
| 2026-05-04 02:32 | 25.22075 | 110.04401 | 579 ft | 6 kts | 183° |
| 2026-05-04 02:32 | 25.22012 | 110.04395 | 580 ft | 5 kts | 185° |
| 2026-05-04 02:33 | 25.21988 | 110.04404 | 580 ft | 3 kts | 142° |
| 2026-05-04 02:33 | 25.21979 | 110.04422 | 580 ft | 3 kts | 114° |
| 2026-05-04 02:33 | 25.21963 | 110.04487 | 579 ft | 11 kts | 128° |
| 2026-05-04 02:33 | 25.21919 | 110.04529 | 580 ft | 7 kts | 115° |
| 2026-05-04 02:34 | 25.21912 | 110.04571 | 581 ft | 5 kts | 97° |
| 2026-05-04 02:34 | 25.21911 | 110.04586 | 580 ft | 0 kts | 95° |
| 2026-05-04 02:34 | 25.21911 | 110.04587 | 580 ft | 0 kts | 95° |